createdAt,value
2022-08-03T00:02:23.041Z,61.81
2022-08-03T00:04:53.058Z,61.30
2022-08-03T00:07:27.965Z,63.26
2022-08-03T00:09:58.603Z,61.66
2022-08-03T00:12:26.729Z,62.39
2022-08-03T00:14:58.898Z,61.67
2022-08-03T00:17:31.617Z,62.54
2022-08-03T00:20:36.073Z,62.60
2022-08-03T00:23:51.237Z,63.57
2022-08-03T00:26:33.440Z,62.86
2022-08-03T00:29:16.290Z,63.95
2022-08-03T00:32:09.628Z,64.13
2022-08-03T00:35:09.864Z,64.97
2022-08-03T00:37:45.902Z,64.13
2022-08-03T00:40:15.515Z,64.15
2022-08-03T00:43:13.175Z,64.11
2022-08-03T00:45:48.403Z,64.64
2022-08-03T00:48:32.906Z,64.13
2022-08-03T00:51:02.791Z,64.22
2022-08-03T00:53:30.480Z,65.18
2022-08-03T00:56:02.735Z,64.85
2022-08-03T00:58:30.541Z,64.65
2022-08-03T01:00:59.140Z,65.25
2022-08-03T01:03:27.822Z,66.22
2022-08-03T01:06:19.897Z,66.15
2022-08-03T01:08:56.055Z,64.32
2022-08-03T01:11:59.997Z,64.38
2022-08-03T01:14:52.338Z,64.34
2022-08-03T01:17:30.360Z,64.81
2022-08-03T01:20:14.333Z,64.65
2022-08-03T01:23:29.914Z,64.50
2022-08-03T01:26:28.044Z,64.39
2022-08-03T01:29:13.701Z,64.24
2022-08-03T01:33:02.488Z,64.22
2022-08-03T01:35:04.118Z,63.32
2022-08-03T01:37:48.616Z,63.66
2022-08-03T01:40:20.581Z,63.49
2022-08-03T01:42:52.018Z,64.10
2022-08-03T01:45:47.401Z,64.70
2022-08-03T01:48:19.706Z,64.36
2022-08-03T01:51:08.963Z,65.08
2022-08-03T01:53:46.286Z,65.65
2022-08-03T01:56:20.253Z,65.65
2022-08-03T01:58:51.046Z,65.05
2022-08-03T02:01:20.946Z,65.78
2022-08-03T02:03:59.586Z,65.51
2022-08-03T02:07:01.831Z,64.83
2022-08-03T02:09:22.096Z,65.62
2022-08-03T02:11:53.431Z,65.52
2022-08-03T02:14:24.219Z,65.93
2022-08-03T02:16:53.637Z,66.74
2022-08-03T02:19:23.221Z,67.28
2022-08-03T02:22:13.679Z,68.25
2022-08-03T02:24:58.175Z,68.46
2022-08-03T02:27:27.650Z,68.83
2022-08-03T02:30:15.722Z,68.61
2022-08-03T02:32:51.882Z,69.14
2022-08-03T02:35:25.071Z,68.58
2022-08-03T02:38:00.768Z,69.18
2022-08-03T02:40:51.472Z,69.71
2022-08-03T02:43:22.967Z,69.62
2022-08-03T02:45:53.107Z,70.18
2022-08-03T02:48:41.868Z,70.86
2022-08-03T02:51:10.188Z,72.06
2022-08-03T02:53:39.092Z,72.25
2022-08-03T02:56:07.854Z,73.02
2022-08-03T02:58:41.529Z,73.70
2022-08-03T03:01:14.494Z,74.92
2022-08-03T03:03:51.218Z,75.40
2022-08-03T03:06:23.063Z,75.93
2022-08-03T03:09:12.430Z,75.36
2022-08-03T03:11:41.586Z,75.63
2022-08-03T03:14:13.503Z,75.88
2022-08-03T03:16:42.776Z,76.45
2022-08-03T03:19:13.320Z,77.18
2022-08-03T03:21:40.748Z,78.18
2022-08-03T03:24:09.879Z,77.48
2022-08-03T03:26:42.309Z,77.25
2022-08-03T03:29:10.130Z,76.45
2022-08-03T03:31:37.550Z,77.79
2022-08-03T03:34:07.178Z,79.07
2022-08-03T03:36:36.254Z,78.65
2022-08-03T03:39:15.158Z,79.39
2022-08-03T03:42:04.436Z,79.96
2022-08-03T03:44:32.275Z,80.36
2022-08-03T03:47:01.119Z,80.21
2022-08-03T03:49:28.690Z,80.29
2022-08-03T03:51:58.901Z,78.85
2022-08-03T03:54:29.283Z,79.21
2022-08-03T03:56:57.852Z,79.27
2022-08-03T03:59:25.888Z,79.18
2022-08-03T04:01:59.164Z,78.91
2022-08-03T04:04:51.503Z,79.19
2022-08-03T04:07:44.032Z,80.75
2022-08-03T04:10:41.131Z,79.87
2022-08-03T04:13:15.951Z,79.19
2022-08-03T04:15:46.792Z,77.12
2022-08-03T04:18:17.606Z,77.33
2022-08-03T04:20:47.623Z,77.01
2022-08-03T04:23:18.713Z,77.28
2022-08-03T04:25:49.399Z,77.53
2022-08-03T04:28:29.484Z,77.68
2022-08-03T04:31:05.397Z,76.96
2022-08-03T04:33:58.940Z,78.56
2022-08-03T04:36:33.023Z,77.14
2022-08-03T04:42:07.848Z,76.24
2022-08-03T04:44:40.687Z,76.37
2022-08-03T04:47:09.928Z,75.11
2022-08-03T04:49:40.692Z,74.79
2022-08-03T04:52:10.309Z,76.42
2022-08-03T04:54:50.359Z,75.88
2022-08-03T04:57:22.739Z,75.46
2022-08-03T05:00:02.678Z,75.04
2022-08-03T05:02:35.360Z,74.85
2022-08-03T05:05:03.030Z,74.02
2022-08-03T05:07:35.905Z,74.91
2022-08-03T05:10:22.780Z,73.88
2022-08-03T05:12:51.832Z,73.77
2022-08-03T05:15:19.311Z,71.89
2022-08-03T05:17:46.813Z,72.89
2022-08-03T05:20:16.558Z,71.65
2022-08-03T05:23:10.802Z,71.89
2022-08-03T05:25:46.152Z,72.00
2022-08-03T05:28:17.936Z,73.22
2022-08-03T05:30:46.462Z,70.82
2022-08-03T05:33:14.017Z,68.62
2022-08-03T05:36:00.784Z,67.75
2022-08-03T05:38:34.299Z,66.24
2022-08-03T05:41:20.403Z,63.24
2022-08-03T05:43:54.513Z,63.73
2022-08-03T05:46:25.388Z,62.50
2022-08-03T05:48:52.876Z,61.38
2022-08-03T05:51:20.624Z,61.56
2022-08-03T05:53:50.520Z,60.99
2022-08-03T05:56:17.882Z,60.24
2022-08-03T05:58:47.011Z,59.37
2022-08-03T06:01:16.907Z,57.06
2022-08-03T06:03:45.870Z,55.64
2022-08-03T06:06:13.822Z,55.24
2022-08-03T06:08:42.487Z,55.10
2022-08-03T06:11:10.094Z,55.09
2022-08-03T06:13:37.904Z,54.03
2022-08-03T06:16:05.955Z,54.04
2022-08-03T06:18:33.453Z,53.18
2022-08-03T06:21:14.239Z,52.24
2022-08-03T06:23:52.835Z,52.13
2022-08-03T06:26:26.699Z,51.48
2022-08-03T06:28:55.094Z,50.94
2022-08-03T06:31:33.192Z,50.08
2022-08-03T06:34:33.833Z,51.30
2022-08-03T06:36:58.554Z,50.67
2022-08-03T06:39:29.603Z,50.84
2022-08-03T06:41:56.892Z,49.58
2022-08-03T06:44:25.068Z,50.09
2022-08-03T06:46:53.187Z,49.51
2022-08-03T06:49:23.290Z,49.32
2022-08-03T06:52:05.624Z,48.91
2022-08-03T06:54:35.512Z,48.87
2022-08-03T06:57:03.853Z,48.42
2022-08-03T07:00:10.584Z,47.99
2022-08-03T07:02:19.893Z,47.96
2022-08-03T07:04:51.040Z,47.45
2022-08-03T07:07:19.584Z,47.10
2022-08-03T07:09:56.394Z,46.86
2022-08-03T07:12:26.954Z,44.81
2022-08-03T07:15:00.039Z,45.31
2022-08-03T07:17:29.184Z,45.45
2022-08-03T07:19:57.096Z,46.67
2022-08-03T07:22:24.430Z,45.36
2022-08-03T07:24:51.878Z,45.85
2022-08-03T07:27:19.410Z,45.48
2022-08-03T07:29:47.863Z,46.04
2022-08-03T07:32:21.293Z,46.08
2022-08-03T07:34:51.392Z,45.52
2022-08-03T07:37:20.106Z,45.93
2022-08-03T07:39:47.571Z,44.72
2022-08-03T07:42:15.591Z,44.35
2022-08-03T07:44:50.931Z,43.46
2022-08-03T07:47:35.725Z,42.96
2022-08-03T07:50:03.812Z,42.94
2022-08-03T07:52:49.954Z,42.44
2022-08-03T07:55:19.431Z,41.21
2022-08-03T07:57:47.401Z,41.23
2022-08-03T08:00:20.218Z,41.80
2022-08-03T08:02:48.201Z,41.57
2022-08-03T08:05:15.484Z,42.06
2022-08-03T08:07:42.806Z,42.76
2022-08-03T08:10:10.669Z,41.62
2022-08-03T08:12:39.184Z,40.89
2022-08-03T08:15:09.698Z,41.10
2022-08-03T08:17:47.842Z,40.56
2022-08-03T08:20:30.838Z,40.99
2022-08-03T08:23:02.145Z,40.38
2022-08-03T08:25:31.738Z,39.77
2022-08-03T08:28:31.174Z,37.91
2022-08-03T08:30:53.310Z,35.91
2022-08-03T08:33:23.525Z,36.22
2022-08-03T08:35:53.243Z,36.52
2022-08-03T08:38:23.989Z,36.19
2022-08-03T08:40:56.011Z,36.10
2022-08-03T08:43:23.821Z,34.60
2022-08-03T08:45:54.365Z,36.62
2022-08-03T08:48:25.670Z,36.56
2022-08-03T08:50:56.105Z,38.56
2022-08-03T08:53:30.059Z,38.56
2022-08-03T08:56:01.340Z,41.57
2022-08-03T08:58:42.139Z,40.30
2022-08-03T09:01:10.343Z,39.07
2022-08-03T09:03:39.434Z,38.52
2022-08-03T09:06:14.044Z,38.43
2022-08-03T09:08:44.015Z,37.46
2022-08-03T09:11:12.184Z,38.34
2022-08-03T09:13:40.282Z,37.50
2022-08-03T09:16:12.321Z,36.86
2022-08-03T09:18:41.385Z,36.93
2022-08-03T09:21:32.792Z,35.88
2022-08-03T09:24:05.270Z,36.94
2022-08-03T09:26:42.067Z,35.15
2022-08-03T09:29:14.926Z,35.24
2022-08-03T09:31:47.143Z,35.47
2022-08-03T09:34:17.338Z,37.32
2022-08-03T09:36:54.250Z,37.35
2022-08-03T09:39:53.606Z,34.95
2022-08-03T09:42:24.346Z,34.77
2022-08-03T09:45:27.989Z,34.51
2022-08-03T09:47:59.972Z,33.88
2022-08-03T09:50:29.398Z,33.65
2022-08-03T09:53:02.401Z,33.60
2022-08-03T09:56:33.495Z,33.33
2022-08-03T09:58:29.057Z,33.49
2022-08-03T10:01:05.351Z,33.64
2022-08-03T10:04:03.351Z,32.41
2022-08-03T10:06:29.320Z,31.84
2022-08-03T10:09:15.083Z,30.57
2022-08-03T10:11:44.284Z,31.87
2022-08-03T10:14:21.218Z,31.33
2022-08-03T10:16:50.920Z,32.74
2022-08-03T10:19:18.573Z,33.89
2022-08-03T10:21:55.710Z,32.50
2022-08-03T10:24:33.186Z,32.53
2022-08-03T10:27:07.474Z,32.21
2022-08-03T10:29:43.029Z,31.61
2022-08-03T10:32:15.980Z,32.33
2022-08-03T10:34:45.222Z,32.07
2022-08-03T10:37:15.216Z,32.14
2022-08-03T10:39:53.587Z,31.64
2022-08-03T10:42:25.039Z,32.90
2022-08-03T10:45:03.793Z,33.57
2022-08-03T10:47:32.057Z,30.30
2022-08-03T10:50:00.563Z,31.30
2022-08-03T10:52:35.009Z,29.97
2022-08-03T10:55:50.652Z,30.99
2022-08-03T10:58:57.150Z,31.73
2022-08-03T11:02:02.964Z,31.24
2022-08-03T11:04:30.779Z,29.87
2022-08-03T11:07:20.754Z,30.57
2022-08-03T11:09:57.481Z,30.43
2022-08-03T11:12:32.872Z,30.77
2022-08-03T11:15:06.478Z,31.19
2022-08-03T11:17:46.150Z,32.23
2022-08-03T11:20:55.086Z,30.39
2022-08-03T11:24:03.106Z,29.71
2022-08-03T11:26:34.119Z,29.74
2022-08-03T11:29:28.162Z,29.66
2022-08-03T11:31:55.593Z,28.30
2022-08-03T11:34:24.750Z,28.32
2022-08-03T11:37:28.839Z,27.02
2022-08-03T11:40:02.722Z,27.69
2022-08-03T11:42:40.892Z,29.26
2022-08-03T11:45:10.563Z,30.04
2022-08-03T11:47:50.460Z,30.04
2022-08-03T11:50:21.994Z,29.04
2022-08-03T11:52:50.711Z,30.73
2022-08-03T11:55:22.198Z,28.83
2022-08-03T11:59:10.696Z,28.49
2022-08-03T12:00:37.997Z,28.96
2022-08-03T12:03:35.383Z,29.09
2022-08-03T12:06:05.822Z,28.40
2022-08-03T12:08:35.947Z,28.96
2022-08-03T12:11:09.553Z,28.60
2022-08-03T12:14:44.261Z,28.89
2022-08-03T12:16:33.115Z,28.61
2022-08-03T12:19:05.163Z,28.66
2022-08-03T12:21:34.710Z,27.68
2022-08-03T12:24:05.300Z,28.50
2022-08-03T12:26:59.349Z,27.46
2022-08-03T12:29:28.015Z,26.39
2022-08-03T12:31:56.074Z,28.28
2022-08-03T12:34:23.793Z,27.37
2022-08-03T12:36:54.212Z,28.28
2022-08-03T12:39:27.615Z,27.21
2022-08-03T12:41:56.876Z,27.63
2022-08-03T12:44:36.786Z,27.34
2022-08-03T12:47:06.761Z,27.64
2022-08-03T12:49:47.208Z,26.36
2022-08-03T12:52:15.154Z,26.26
2022-08-03T12:54:43.889Z,26.17
2022-08-03T12:57:15.624Z,27.45
2022-08-03T12:59:53.415Z,25.21
2022-08-03T13:02:23.987Z,26.85
2022-08-03T13:04:53.710Z,25.46
2022-08-03T13:07:22.350Z,25.59
2022-08-03T13:09:55.814Z,26.72
2022-08-03T13:12:25.683Z,26.48
2022-08-03T13:14:56.637Z,25.10
2022-08-03T13:17:24.542Z,24.56
2022-08-03T13:19:53.548Z,26.23
2022-08-03T13:22:27.682Z,25.81
2022-08-03T13:24:57.587Z,26.01
2022-08-03T13:28:03.589Z,25.49
2022-08-03T13:30:24.957Z,24.50
2022-08-03T13:32:58.889Z,26.19
2022-08-03T13:35:27.021Z,25.99
2022-08-03T13:37:57.571Z,26.74
2022-08-03T13:40:30.028Z,25.48
2022-08-03T13:43:06.568Z,27.27
2022-08-03T13:45:33.924Z,25.26
2022-08-03T13:48:01.485Z,25.34
2022-08-03T13:50:30.199Z,25.98
2022-08-03T13:52:58.381Z,26.35
2022-08-03T13:55:25.918Z,27.93
2022-08-03T13:58:05.098Z,26.73
2022-08-03T14:00:34.867Z,27.25
2022-08-03T14:03:12.223Z,27.79
2022-08-03T14:05:41.204Z,28.12
2022-08-03T14:08:10.065Z,27.54
2022-08-03T14:10:40.119Z,27.97
2022-08-03T14:13:07.921Z,29.08
2022-08-03T14:15:42.786Z,27.81
2022-08-03T14:18:27.937Z,26.92
2022-08-03T14:21:07.003Z,26.99
2022-08-03T14:23:39.536Z,26.74
2022-08-03T14:26:08.476Z,27.17
2022-08-03T14:28:36.348Z,26.92
2022-08-03T14:31:08.125Z,26.63
2022-08-03T14:33:36.481Z,27.48
2022-08-03T14:36:04.706Z,26.88
2022-08-03T14:38:32.326Z,29.38
2022-08-03T14:41:00.204Z,27.17
2022-08-03T14:43:34.205Z,26.38
2022-08-03T14:46:04.884Z,26.32
2022-08-03T14:50:32.950Z,26.96
2022-08-03T14:51:21.352Z,26.22
2022-08-03T14:53:48.626Z,27.52
2022-08-03T14:56:15.934Z,28.04
2022-08-03T14:58:43.451Z,27.75
2022-08-03T15:02:01.742Z,27.34
2022-08-03T15:04:00.736Z,26.58
2022-08-03T15:06:28.040Z,26.10
2022-08-03T15:09:21.501Z,27.30
2022-08-03T15:11:43.903Z,26.63
2022-08-03T15:14:13.534Z,27.31
2022-08-03T15:16:42.655Z,27.88
2022-08-03T15:20:02.117Z,26.62
2022-08-03T15:21:57.995Z,27.75
2022-08-03T15:24:29.563Z,28.13
2022-08-03T15:26:56.886Z,28.56
2022-08-03T15:30:07.792Z,27.67
2022-08-03T15:32:12.136Z,28.21
2022-08-03T15:34:39.484Z,29.79
2022-08-03T15:37:16.191Z,30.16
2022-08-03T15:39:59.730Z,31.07
2022-08-03T15:42:30.429Z,31.85
2022-08-03T15:44:58.706Z,31.18
2022-08-03T15:47:25.997Z,30.78
2022-08-03T15:49:53.316Z,30.85
2022-08-03T15:52:21.005Z,29.68
2022-08-03T15:54:50.814Z,29.66
2022-08-03T15:57:19.395Z,30.13
2022-08-03T15:59:47.330Z,30.89
2022-08-03T16:02:16.792Z,30.59
2022-08-03T16:04:46.644Z,30.41
2022-08-03T16:07:37.213Z,30.49
2022-08-03T16:10:05.010Z,30.14
2022-08-03T16:12:33.106Z,30.05
2022-08-03T16:15:01.726Z,30.05
2022-08-03T16:17:32.715Z,30.95
2022-08-03T16:20:00.738Z,31.20
2022-08-03T16:22:34.381Z,31.53
2022-08-03T16:25:02.133Z,31.35
2022-08-03T16:27:58.087Z,31.02
2022-08-03T16:30:18.693Z,31.13
2022-08-03T16:32:46.295Z,31.00
2022-08-03T16:35:19.592Z,31.18
2022-08-03T16:37:54.550Z,31.06
2022-08-03T16:40:25.302Z,30.92
2022-08-03T16:42:54.595Z,31.62
2022-08-03T16:45:22.059Z,31.41
2022-08-03T16:48:05.146Z,31.74
2022-08-03T16:50:35.147Z,32.33
2022-08-03T16:53:15.507Z,32.83
2022-08-03T16:55:53.634Z,33.49
2022-08-03T16:58:34.894Z,33.97
2022-08-03T17:01:22.312Z,34.09
2022-08-03T17:04:01.819Z,34.63
2022-08-03T17:06:35.651Z,35.00
2022-08-03T17:09:12.185Z,34.81
2022-08-03T17:11:47.116Z,34.97
2022-08-03T17:14:17.037Z,34.99
2022-08-03T17:16:52.734Z,35.19
2022-08-03T17:19:24.158Z,35.24
2022-08-03T17:21:59.052Z,35.64
2022-08-03T17:24:35.062Z,35.64
2022-08-03T17:27:08.943Z,36.14
2022-08-03T17:29:39.457Z,37.01
2022-08-03T17:32:18.375Z,37.76
2022-08-03T17:34:51.455Z,38.14
2022-08-03T17:37:50.115Z,38.05
2022-08-03T17:40:17.992Z,38.69
2022-08-03T17:42:50.498Z,38.63
2022-08-03T17:45:19.655Z,38.07
2022-08-03T17:47:57.031Z,38.93
2022-08-03T17:50:37.408Z,38.96
2022-08-03T17:53:23.868Z,39.37
2022-08-03T17:56:38.518Z,38.88
2022-08-03T17:59:14.329Z,39.22
2022-08-03T18:02:33.141Z,39.97
2022-08-03T18:05:16.617Z,40.36
2022-08-03T18:07:59.285Z,41.07
2022-08-03T18:10:35.130Z,41.00
2022-08-03T18:13:21.187Z,41.78
2022-08-03T18:16:04.506Z,41.07
2022-08-03T18:18:36.030Z,42.30
2022-08-03T18:21:06.565Z,42.77
2022-08-03T18:23:40.357Z,43.74
2022-08-03T18:26:11.846Z,45.70
2022-08-03T18:28:39.962Z,46.18
2022-08-03T18:31:12.770Z,46.32
2022-08-03T18:34:20.337Z,45.53
2022-08-03T18:36:49.810Z,45.16
2022-08-03T18:39:19.519Z,46.44
2022-08-03T18:41:48.706Z,46.81
2022-08-03T18:44:53.411Z,47.17
2022-08-03T18:47:27.603Z,47.45
2022-08-03T18:50:26.976Z,48.12
2022-08-03T18:53:15.702Z,48.10
2022-08-03T18:56:01.705Z,48.46
2022-08-03T18:58:56.055Z,48.68
2022-08-03T19:02:00.291Z,50.36
2022-08-03T19:04:36.579Z,51.47
2022-08-03T19:07:13.024Z,51.38
2022-08-03T19:09:54.694Z,49.59
2022-08-03T19:12:39.812Z,50.92
2022-08-03T19:15:12.619Z,50.64
2022-08-03T19:17:52.924Z,51.35
2022-08-03T19:20:32.458Z,51.69
2022-08-03T19:23:00.654Z,51.94
2022-08-03T19:25:35.142Z,52.70
2022-08-03T19:28:07.225Z,52.23
2022-08-03T19:30:39.070Z,51.96
2022-08-03T19:33:12.544Z,53.25
2022-08-03T19:35:51.678Z,54.20
2022-08-03T19:38:27.594Z,53.76
2022-08-03T19:41:00.668Z,52.32
2022-08-03T19:43:49.343Z,53.07
2022-08-03T19:46:30.217Z,52.69
2022-08-03T19:49:15.123Z,52.66
2022-08-03T19:52:01.713Z,54.52
2022-08-03T19:54:45.586Z,51.47
2022-08-03T19:57:24.155Z,53.01
2022-08-03T19:59:53.571Z,54.54
2022-08-03T20:05:14.946Z,53.49
2022-08-03T20:07:47.911Z,53.78
2022-08-03T20:10:21.746Z,53.15
2022-08-03T20:12:50.773Z,52.31
2022-08-03T20:18:16.927Z,52.59
2022-08-03T20:20:52.691Z,52.46
2022-08-03T20:23:21.476Z,51.17
2022-08-03T20:25:58.829Z,52.78
2022-08-03T20:28:32.118Z,53.75
2022-08-03T20:31:00.131Z,52.50
2022-08-03T20:33:46.633Z,52.26
2022-08-03T20:36:18.891Z,52.49
2022-08-03T20:38:51.934Z,53.27
2022-08-03T20:41:21.278Z,53.00
2022-08-03T20:43:49.508Z,53.55
2022-08-03T20:46:31.868Z,53.37
2022-08-03T20:49:05.372Z,53.81
2022-08-03T20:51:50.225Z,53.02
2022-08-03T20:54:29.411Z,54.39
2022-08-03T20:57:03.681Z,52.32
2022-08-03T20:59:50.712Z,53.30
2022-08-03T21:02:30.115Z,54.71
2022-08-03T21:05:03.265Z,54.41
2022-08-03T21:08:06.160Z,54.94
2022-08-03T21:10:41.934Z,53.92
2022-08-03T21:13:08.908Z,52.57
2022-08-03T21:13:09.285Z,53.51
2022-08-03T21:13:26.803Z,54.63
2022-08-03T21:16:12.514Z,55.30
2022-08-03T21:18:53.305Z,55.06
2022-08-03T21:21:24.301Z,54.56
2022-08-03T21:23:57.703Z,54.88
2022-08-03T21:26:27.455Z,54.57
2022-08-03T21:28:57.861Z,53.73
2022-08-03T21:31:26.724Z,53.05
2022-08-03T21:34:04.424Z,52.38
2022-08-03T21:36:35.361Z,51.92
2022-08-03T21:39:08.372Z,53.55
2022-08-03T21:41:37.462Z,54.84
2022-08-03T21:44:07.539Z,53.93
2022-08-03T21:46:37.740Z,54.54
2022-08-03T21:49:51.915Z,53.75
2022-08-03T21:52:02.966Z,53.79
2022-08-03T21:54:43.360Z,53.89
2022-08-03T21:57:22.067Z,53.52
2022-08-03T22:00:15.899Z,52.41
2022-08-03T22:02:54.505Z,52.59
2022-08-03T22:05:29.010Z,54.72
2022-08-03T22:08:13.843Z,54.87
2022-08-03T22:10:44.581Z,55.11
2022-08-03T22:13:43.731Z,55.88
2022-08-03T22:16:16.752Z,54.92
2022-08-03T22:18:46.228Z,55.48
2022-08-03T22:21:16.478Z,55.22
2022-08-03T22:24:00.093Z,55.33
2022-08-03T22:26:32.362Z,55.60
2022-08-03T22:29:08.163Z,55.08
2022-08-03T22:31:58.201Z,54.56
2022-08-03T22:34:28.690Z,54.53
2022-08-03T22:37:03.856Z,54.08
2022-08-03T22:39:35.502Z,54.21
2022-08-03T22:42:07.382Z,54.76
2022-08-03T22:44:36.241Z,55.47
2022-08-03T22:47:05.015Z,55.68
2022-08-03T22:49:33.900Z,55.27
2022-08-03T22:52:02.842Z,55.79
2022-08-03T22:54:32.753Z,55.40
2022-08-03T22:57:01.693Z,56.06
2022-08-03T22:59:41.296Z,54.77
2022-08-03T23:02:21.669Z,55.17
2022-08-03T23:04:53.416Z,54.91
2022-08-03T23:07:31.299Z,55.36
2022-08-03T23:10:04.075Z,55.41
2022-08-03T23:12:35.075Z,55.82
2022-08-03T23:15:10.013Z,56.42
2022-08-03T23:17:58.199Z,56.78
2022-08-03T23:20:27.046Z,56.57
2022-08-03T23:22:58.723Z,56.37
2022-08-03T23:25:28.152Z,57.14
2022-08-03T23:28:05.307Z,56.90
2022-08-03T23:30:37.560Z,57.32
2022-08-03T23:33:08.232Z,57.42
2022-08-03T23:36:28.015Z,57.73
2022-08-03T23:38:44.155Z,57.68
2022-08-03T23:41:12.877Z,57.83
2022-08-03T23:43:51.182Z,55.83
2022-08-03T23:46:27.528Z,55.56
2022-08-03T23:48:56.456Z,55.81
2022-08-03T23:51:38.472Z,55.61
2022-08-03T23:54:39.840Z,56.31
2022-08-03T23:57:11.624Z,57.04
2022-08-03T23:59:54.513Z,57.00
